Time;durP1;ratioP1;P1;durP2;ratioP2;P2;SDS_P1;SDS_P2;PMS_P1;PMS_P2;Temp;Humidity;BMP_temperature;BMP_pressure;BME280_temperature;BME280_humidity;BME280_pressure;Samples;Min_cycle;Max_cycle;Signal;HPM_P1;HPM_P2
2023/03/21 00:01:56;;;;;;;49.38;33.03;;;;;;;-144.73;100.00;54514.44;4994099;28;20109;-76
2023/03/21 00:04:24;;;;;;;49.72;32.47;;;;;;;-144.73;100.00;54498.00;4993232;28;20084;-78
2023/03/21 00:07:03;;;;;;;57.35;35.20;;;;;;;-144.73;100.00;54539.06;4995532;28;20022;-77
2023/03/21 00:09:34;;;;;;;55.72;35.72;;;;;;;-144.73;100.00;54539.06;4986377;28;20025;-77
2023/03/21 00:12:00;;;;;;;59.35;33.15;;;;;;;-144.73;100.00;54522.63;4994007;28;20113;-77
2023/03/21 00:14:29;;;;;;;55.85;35.47;;;;;;;-144.73;100.00;54485.69;4993723;28;20109;-77
2023/03/21 00:16:56;;;;;;;49.42;32.05;;;;;;;-144.73;100.00;54504.16;4995648;28;20049;-77
2023/03/21 00:19:25;;;;;;;59.83;35.75;;;;;;;-144.73;100.00;54522.63;4992371;28;20041;-77
2023/03/21 00:21:51;;;;;;;59.63;37.60;;;;;;;-144.73;100.00;54539.06;4994058;28;20088;-77
2023/03/21 00:24:19;;;;;;;58.33;38.92;;;;;;;-144.73;100.00;54498.00;4992747;28;20057;-79
2023/03/21 00:26:44;;;;;;;57.90;34.72;;;;;;;-144.73;100.00;54506.22;4993867;28;20033;-77
2023/03/21 00:29:10;;;;;;;54.08;35.17;;;;;;;-144.73;100.00;54518.53;4993646;28;20034;-77
2023/03/21 00:31:35;;;;;;;56.90;37.92;;;;;;;-144.73;100.00;54481.59;4993975;28;20040;-77
2023/03/21 00:34:00;;;;;;;63.95;37.08;;;;;;;-144.73;100.00;54510.31;4993783;28;20038;-77
2023/03/21 00:36:26;;;;;;;62.60;39.08;;;;;;;-144.73;100.00;54518.53;5000677;28;20017;-77
2023/03/21 00:38:52;;;;;;;55.13;36.75;;;;;;;-144.73;100.00;54485.69;5019256;28;20030;-77
2023/03/21 00:41:18;;;;;;;73.90;45.30;;;;;;;-144.73;100.00;54522.63;4997174;28;20040;-78
2023/03/21 00:43:43;;;;;;;78.68;44.00;;;;;;;-144.73;100.00;54563.69;5005217;28;20469;-79
2023/03/21 00:46:08;;;;;;;80.43;44.67;;;;;;;-144.73;100.00;54512.38;4988365;28;20093;-77
2023/03/21 00:48:34;;;;;;;76.45;41.53;;;;;;;-144.73;100.00;54522.63;4981287;28;20034;-78
2023/03/21 00:50:59;;;;;;;77.95;42.67;;;;;;;-144.73;100.00;54483.66;4996906;28;20068;-78
2023/03/21 00:53:27;;;;;;;73.57;43.17;;;;;;;-144.73;100.00;54506.22;4996415;28;20042;-77
2023/03/21 00:55:52;;;;;;;79.63;46.58;;;;;;;-144.73;100.00;54518.53;4996555;28;20030;-78
2023/03/21 00:58:18;;;;;;;67.53;40.97;;;;;;;-144.73;100.00;54555.47;5004535;28;20084;-77
2023/03/21 01:00:45;;;;;;;75.90;43.50;;;;;;;-144.73;100.00;54506.22;4996686;28;20478;-77
2023/03/21 01:03:12;;;;;;;73.50;41.70;;;;;;;-144.73;100.00;54489.81;5013732;28;20113;-78
2023/03/21 01:08:25;;;;;;;99.97;49.85;;;;;;;-144.73;100.00;54502.13;5013723;28;20038;-76
2023/03/21 01:10:51;;;;;;;105.32;51.97;;;;;;;-144.73;100.00;54551.38;5014206;28;20028;-76
2023/03/21 01:13:20;;;;;;;105.03;50.92;;;;;;;-144.73;100.00;54518.53;4996436;28;20034;-76
2023/03/21 01:15:51;;;;;;;104.07;49.65;;;;;;;-144.73;100.00;54518.53;4988396;28;20018;-76
2023/03/21 01:18:20;;;;;;;93.68;47.47;;;;;;;-144.73;100.00;54539.06;4986508;28;20499;-78
2023/03/21 01:20:46;;;;;;;80.22;43.83;;;;;;;-144.73;100.00;54530.84;5014464;28;20014;-78
2023/03/21 01:23:13;;;;;;;109.95;53.13;;;;;;;-144.73;100.00;54493.91;4996219;28;20574;-76
2023/03/21 01:25:38;;;;;;;107.90;51.92;;;;;;;-144.73;100.00;54506.22;4996271;28;20034;-76
2023/03/21 01:28:04;;;;;;;110.45;53.65;;;;;;;-144.73;100.00;54530.84;4996253;28;20036;-78
2023/03/21 01:30:30;;;;;;;107.45;50.80;;;;;;;-144.73;100.00;54518.53;5013753;28;20078;-78
2023/03/21 01:32:56;;;;;;;97.90;51.47;;;;;;;-144.73;100.00;54483.66;5013420;28;20026;-79
2023/03/21 01:35:21;;;;;;;97.80;49.95;;;;;;;-144.73;100.00;54502.13;4996458;28;20142;-75
2023/03/21 01:37:47;;;;;;;116.32;52.67;;;;;;;-144.73;100.00;54506.22;4996010;28;20223;-78
2023/03/21 01:40:20;;;;;;;123.10;59.13;;;;;;;-144.73;100.00;54512.38;4995878;28;20026;-76
2023/03/21 01:42:46;;;;;;;116.32;57.53;;;;;;;-144.73;100.00;54514.44;5004009;28;20052;-76
2023/03/21 01:45:49;;;;;;;114.43;56.13;;;;;;;-144.73;100.00;54543.16;4996308;28;20029;-76
2023/03/21 01:48:14;;;;;;;124.88;57.55;;;;;;;-144.73;100.00;54528.81;4987457;28;20033;-78
2023/03/21 01:50:41;;;;;;;142.85;60.70;;;;;;;-144.73;100.00;54506.22;4996117;28;20034;-76
2023/03/21 01:53:08;;;;;;;124.32;56.42;;;;;;;-144.73;100.00;54510.31;4995679;28;20069;-79
2023/03/21 01:55:35;;;;;;;128.73;59.45;;;;;;;-144.73;100.00;54510.31;4995404;28;20018;-77
2023/03/21 01:58:03;;;;;;;132.32;63.28;;;;;;;-144.73;100.00;54604.75;4995560;28;20380;-79
2023/03/21 02:00:30;;;;;;;132.23;60.60;;;;;;;-144.73;100.00;54510.31;4995765;28;20072;-76
2023/03/21 02:03:00;;;;;;;132.00;60.40;;;;;;;-144.73;100.00;54498.00;4995416;28;20098;-77
2023/03/21 02:05:40;;;;;;;139.05;63.67;;;;;;;-144.73;100.00;54514.44;4995338;28;20022;-78
2023/03/21 02:08:06;;;;;;;131.43;63.78;;;;;;;-144.73;100.00;54555.47;4995382;28;20108;-78
2023/03/21 02:10:31;;;;;;;134.60;61.38;;;;;;;-144.73;100.00;54530.84;4995259;28;20486;-78
2023/03/21 02:13:06;;;;;;;120.18;59.03;;;;;;;-144.73;100.00;54545.22;4995045;28;20034;-76
2023/03/21 02:15:33;;;;;;;120.80;58.78;;;;;;;-144.73;100.00;54498.00;4994362;28;20117;-77
2023/03/21 02:18:21;;;;;;;99.07;53.42;;;;;;;-144.73;100.00;54518.53;4979927;28;20026;-77
2023/03/21 02:20:59;;;;;;;122.00;57.03;;;;;;;-144.73;100.00;54493.91;4988941;28;20041;-77
2023/03/21 02:24:03;;;;;;;115.72;55.72;;;;;;;-144.73;100.00;54485.69;4994629;28;20037;-78
2023/03/21 02:26:57;;;;;;;103.70;51.38;;;;;;;-144.73;100.00;54522.63;4995035;28;20084;-74
2023/03/21 02:29:51;;;;;;;108.80;54.28;;;;;;;-144.73;100.00;54506.22;4994394;28;20037;-74
2023/03/21 02:32:56;;;;;;;113.78;53.95;;;;;;;-144.73;100.00;54530.84;4993724;28;20030;-74
2023/03/21 02:35:48;;;;;;;96.50;51.88;;;;;;;-144.73;100.00;54518.53;4994633;28;20022;-74
2023/03/21 02:38:20;;;;;;;105.50;54.30;;;;;;;-144.73;100.00;54561.63;4994232;28;20030;-73
2023/03/21 02:41:05;;;;;;;116.43;56.65;;;;;;;-144.73;100.00;54522.63;4994327;28;20112;-74
2023/03/21 02:43:41;;;;;;;130.48;58.17;;;;;;;-144.73;100.00;54604.75;4994283;28;20118;-74
2023/03/21 02:46:13;;;;;;;133.05;56.83;;;;;;;-144.73;100.00;54539.06;4994821;28;20025;-74
2023/03/21 02:48:49;;;;;;;128.05;56.47;;;;;;;-144.73;100.00;54561.63;4986584;28;20034;-74
2023/03/21 02:51:18;;;;;;;156.80;61.28;;;;;;;-144.73;100.00;54547.28;4994307;28;20022;-73
2023/03/21 02:53:48;;;;;;;114.78;53.90;;;;;;;-144.73;100.00;54539.06;4994082;28;20022;-74
2023/03/21 02:56:14;;;;;;;120.22;57.47;;;;;;;-144.73;100.00;54498.00;4993745;28;20091;-74
2023/03/21 02:58:42;;;;;;;106.55;52.65;;;;;;;-144.73;100.00;54547.28;4993578;28;20034;-75
2023/03/21 03:01:08;;;;;;;124.40;60.55;;;;;;;-144.73;100.00;54539.06;4994272;28;20033;-74
2023/03/21 03:03:35;;;;;;;174.50;66.93;;;;;;;-144.73;100.00;54506.22;4993349;28;20046;-74
2023/03/21 03:06:06;;;;;;;137.20;61.92;;;;;;;-144.73;100.00;54524.69;4993861;28;20103;-75
2023/03/21 03:09:04;;;;;;;187.07;71.50;;;;;;;-144.73;100.00;54518.53;4993671;28;20097;-74
2023/03/21 03:11:34;;;;;;;159.13;62.92;;;;;;;-144.73;100.00;54518.53;4994038;28;20030;-75
2023/03/21 03:14:39;;;;;;;151.57;61.53;;;;;;;-144.73;100.00;54485.69;4993560;28;20042;-74
2023/03/21 03:17:31;;;;;;;158.20;61.40;;;;;;;-144.73;100.00;54539.06;4985990;28;20117;-74
2023/03/21 03:20:12;;;;;;;131.40;58.78;;;;;;;-144.73;100.00;54514.44;5005735;28;20026;-74
2023/03/21 03:23:16;;;;;;;174.45;68.93;;;;;;;-144.73;100.00;54502.13;4993655;28;20042;-74
2023/03/21 03:25:48;;;;;;;179.00;73.95;;;;;;;-144.73;100.00;54502.13;4993685;28;20072;-74
2023/03/21 03:28:18;;;;;;;173.23;69.88;;;;;;;-144.73;100.00;54539.06;4993632;28;20037;-74
2023/03/21 03:33:22;;;;;;;161.00;67.25;;;;;;;-144.73;100.00;54522.63;5017303;28;20045;-76
2023/03/21 03:35:49;;;;;;;193.35;75.38;;;;;;;-144.73;100.00;54493.91;5030901;28;20021;-76
2023/03/21 03:38:16;;;;;;;201.07;73.68;;;;;;;-144.73;100.00;54563.69;5013179;28;20044;-76
2023/03/21 03:40:50;;;;;;;222.00;76.88;;;;;;;-144.73;100.00;54557.53;5009452;28;20020;-76
2023/03/21 03:43:23;;;;;;;203.68;75.53;;;;;;;-144.73;100.00;54522.63;5038805;28;20057;-76
2023/03/21 03:45:55;;;;;;;202.65;75.15;;;;;;;-144.73;100.00;54522.63;5012613;28;20029;-76
2023/03/21 03:48:26;;;;;;;;;;;;;;;-144.73;100.00;54518.53;5011269;28;20041;-76
2023/03/21 03:51:23;;;;;;;201.55;72.80;;;;;;;-144.73;100.00;54539.06;5013509;28;19924;-76
2023/03/21 03:54:00;;;;;;;216.35;76.50;;;;;;;-144.73;100.00;54555.47;5000912;28;20033;-76
2023/03/21 03:56:27;;;;;;;209.38;75.90;;;;;;;-144.73;100.00;54510.31;5012959;28;20033;-76
2023/03/21 03:58:53;;;;;;;180.80;70.25;;;;;;;-144.73;100.00;54506.22;5012871;28;20112;-76
2023/03/21 04:01:18;;;;;;;204.48;72.97;;;;;;;-144.73;100.00;54530.84;5004432;28;20116;-76
2023/03/21 04:03:50;;;;;;;170.65;67.97;;;;;;;-144.73;100.00;54547.28;5013143;28;20030;-76
2023/03/21 04:06:17;;;;;;;146.07;61.17;;;;;;;-144.73;100.00;54506.22;5005059;28;20030;-76
2023/03/21 04:08:42;;;;;;;223.80;74.90;;;;;;;-144.73;100.00;54514.44;5006424;28;20460;-76
2023/03/21 04:11:09;;;;;;;203.65;74.18;;;;;;;-144.73;100.00;54518.53;5017175;28;20096;-76
2023/03/21 04:13:35;;;;;;;222.68;75.53;;;;;;;-144.73;100.00;54547.28;5024649;28;20043;-76
2023/03/21 04:16:00;;;;;;;213.25;78.78;;;;;;;-144.73;100.00;54551.38;5027898;28;20105;-77
2023/03/21 04:18:26;;;;;;;194.27;73.05;;;;;;;-144.73;100.00;54571.91;5012967;28;20041;-77
2023/03/21 04:20:52;;;;;;;225.05;78.32;;;;;;;-144.73;100.00;54553.44;5010044;28;20044;-77
2023/03/21 04:23:19;;;;;;;199.93;78.50;;;;;;;-144.73;100.00;54592.44;5008867;28;20120;-77
2023/03/21 04:25:44;;;;;;;212.60;80.07;;;;;;;-144.73;100.00;54524.69;5008729;28;20029;-77
2023/03/21 04:28:10;;;;;;;213.77;81.90;;;;;;;-144.73;100.00;54539.06;5016697;28;20128;-77
2023/03/21 04:30:36;;;;;;;210.30;78.63;;;;;;;-144.73;100.00;54539.06;5048859;28;20036;-77
2023/03/21 04:33:01;;;;;;;251.75;84.90;;;;;;;-144.73;100.00;54510.31;5011045;28;20049;-77
2023/03/21 04:35:27;;;;;;;215.40;80.20;;;;;;;-144.73;100.00;54518.53;5034230;28;20037;-77
2023/03/21 04:37:53;;;;;;;184.10;75.22;;;;;;;-144.73;100.00;54539.06;5038046;28;20038;-77
2023/03/21 04:40:18;;;;;;;229.43;86.63;;;;;;;-144.73;100.00;54514.44;5013669;28;20021;-77
2023/03/21 04:42:45;;;;;;;235.05;87.50;;;;;;;-144.73;100.00;54500.06;5012934;28;20037;-77
2023/03/21 04:45:11;;;;;;;264.45;92.18;;;;;;;-144.73;100.00;54569.84;5029145;28;20112;-76
2023/03/21 04:47:37;;;;;;;205.77;78.72;;;;;;;-144.73;100.00;54530.84;5024963;28;20585;-76
2023/03/21 04:50:02;;;;;;;251.85;88.15;;;;;;;-144.73;100.00;54563.69;5017027;28;20030;-76
2023/03/21 04:52:28;;;;;;;188.70;74.78;;;;;;;-144.73;100.00;54547.28;5007976;28;20038;-76
2023/03/21 04:54:53;;;;;;;194.82;78.18;;;;;;;-144.73;100.00;54555.47;5016801;28;20022;-76
2023/03/21 04:57:18;;;;;;;270.23;88.60;;;;;;;-144.73;100.00;54514.44;5023850;28;20063;-76
2023/03/21 04:59:44;;;;;;;260.85;88.18;;;;;;;-144.73;100.00;54526.75;5027978;28;20095;-76
2023/03/21 05:02:11;;;;;;;242.35;84.55;;;;;;;-144.73;100.00;54516.47;5037616;28;20083;-76
2023/03/21 05:04:36;;;;;;;241.60;87.32;;;;;;;-144.73;100.00;54604.75;5016346;28;20485;-76
2023/03/21 05:07:02;;;;;;;255.70;89.95;;;;;;;-144.73;100.00;54547.28;5015460;28;20111;-76
2023/03/21 05:09:27;;;;;;;219.45;81.28;;;;;;;-144.73;100.00;54514.44;5016177;28;20056;-76
2023/03/21 05:11:53;;;;;;;283.65;94.80;;;;;;;-144.73;100.00;54539.06;5038190;28;20035;-77
2023/03/21 05:14:24;;;;;;;256.88;88.05;;;;;;;-144.73;100.00;54555.47;5027413;28;20044;-77
2023/03/21 05:16:54;;;;;;;;;;;;;;;-144.73;100.00;54555.47;5005043;28;20033;-76
2023/03/21 05:19:33;;;;;;;196.38;75.93;;;;;;;-144.73;100.00;54514.44;5024967;28;19917;-76
2023/03/21 05:22:03;;;;;;;261.70;89.55;;;;;;;-144.73;100.00;54559.59;5006305;28;20025;-77
2023/03/21 05:24:30;;;;;;;228.40;82.47;;;;;;;-144.73;100.00;54541.13;5018516;28;20025;-77
2023/03/21 05:27:00;;;;;;;245.60;87.35;;;;;;;-144.73;100.00;54530.84;5016789;28;20076;-77
2023/03/21 05:29:26;;;;;;;281.02;93.28;;;;;;;-144.73;100.00;54543.16;5008640;28;20117;-77
2023/03/21 05:31:52;;;;;;;239.13;85.65;;;;;;;-144.73;100.00;54530.84;5016321;28;20105;-77
2023/03/21 05:34:17;;;;;;;295.73;95.72;;;;;;;-144.73;100.00;54551.38;5015879;28;20037;-77
2023/03/21 05:36:43;;;;;;;197.75;76.30;;;;;;;-144.73;100.00;54547.28;5011000;28;20029;-77
2023/03/21 05:39:08;;;;;;;242.52;85.72;;;;;;;-144.73;100.00;54514.44;5021682;28;20474;-77
2023/03/21 05:41:34;;;;;;;257.67;87.32;;;;;;;-144.73;100.00;54518.53;5025123;28;20065;-77
2023/03/21 05:43:59;;;;;;;250.55;87.65;;;;;;;-144.73;100.00;54539.06;5016747;28;20034;-77
2023/03/21 05:46:25;;;;;;;263.95;92.07;;;;;;;-144.73;100.00;54510.31;5025218;28;20033;-77
2023/03/21 05:48:51;;;;;;;280.42;94.63;;;;;;;-144.73;100.00;54551.38;5007558;28;20457;-77
2023/03/21 05:51:17;;;;;;;267.45;91.78;;;;;;;-144.73;100.00;54498.00;5016337;28;20040;-77
2023/03/21 05:53:42;;;;;;;251.23;88.53;;;;;;;-144.73;100.00;54571.91;5015560;28;20112;-77
2023/03/21 05:56:08;;;;;;;245.75;84.60;;;;;;;-144.73;100.00;54545.22;5015866;28;20362;-77
2023/03/21 05:58:34;;;;;;;292.83;97.03;;;;;;;-144.73;100.00;54510.31;5015285;28;20048;-77
2023/03/21 06:00:59;;;;;;;279.30;97.15;;;;;;;-144.73;100.00;54545.22;5008931;28;20021;-78
2023/03/21 06:03:25;;;;;;;286.77;97.97;;;;;;;-144.73;100.00;54539.06;5007831;28;20038;-78
2023/03/21 06:05:50;;;;;;;242.80;85.95;;;;;;;-144.73;100.00;54516.47;5016562;28;20032;-77
2023/03/21 06:08:16;;;;;;;177.85;73.85;;;;;;;-144.73;100.00;54576.00;5016523;28;20041;-78
2023/03/21 06:10:41;;;;;;;269.38;92.70;;;;;;;-144.73;100.00;54571.91;5017052;28;20037;-77
2023/03/21 06:13:07;;;;;;;247.57;89.45;;;;;;;-144.73;100.00;54522.63;5017019;28;20057;-77
2023/03/21 06:15:33;;;;;;;221.00;86.28;;;;;;;-144.73;100.00;54545.22;5012924;28;20037;-78
2023/03/21 06:17:58;;;;;;;230.98;84.13;;;;;;;-144.73;100.00;54539.06;5001534;28;20033;-80
2023/03/21 06:20:23;;;;;;;181.35;76.93;;;;;;;-144.73;100.00;54539.06;5017339;28;20060;-77
2023/03/21 06:22:49;;;;;;;219.10;84.65;;;;;;;-144.73;100.00;54551.38;5016962;28;20041;-77
2023/03/21 06:25:14;;;;;;;192.75;80.20;;;;;;;-144.73;100.00;54539.06;5009354;28;20388;-78
2023/03/21 06:27:40;;;;;;;208.30;81.93;;;;;;;-144.73;100.00;54561.63;5016283;28;20040;-77
2023/03/21 06:30:07;;;;;;;214.25;79.85;;;;;;;-144.73;100.00;54498.00;5016164;28;20022;-78
2023/03/21 06:32:32;;;;;;;183.82;77.65;;;;;;;-144.73;100.00;54576.00;5014228;28;20041;-78
2023/03/21 06:34:58;;;;;;;214.05;82.80;;;;;;;-144.73;100.00;54510.31;5016494;28;20025;-77
2023/03/21 06:37:25;;;;;;;172.13;77.03;;;;;;;-144.73;100.00;54547.28;5015898;28;20508;-78
2023/03/21 06:39:50;;;;;;;184.20;79.68;;;;;;;-144.73;100.00;54567.81;5037521;28;20016;-78
2023/03/21 06:42:16;;;;;;;208.55;82.80;;;;;;;-144.73;100.00;54516.47;5021706;28;20029;-78
2023/03/21 06:44:41;;;;;;;166.80;74.95;;;;;;;-144.73;100.00;54604.75;5016883;28;20527;-78
2023/03/21 06:47:06;;;;;;;209.95;86.85;;;;;;;-144.73;100.00;54526.75;5010111;28;20486;-78
2023/03/21 06:49:32;;;;;;;216.38;86.63;;;;;;;-144.73;100.00;54551.38;5013933;28;20040;-78
2023/03/21 06:51:58;;;;;;;201.68;83.68;;;;;;;-144.73;100.00;54594.47;5018340;28;20021;-79
2023/03/21 06:54:23;;;;;;;207.68;80.38;;;;;;;-144.73;100.00;54539.06;5019918;28;20025;-79
2023/03/21 06:56:49;;;;;;;190.65;79.72;;;;;;;-144.73;100.00;54547.28;5024980;28;20082;-79
2023/03/21 06:59:14;;;;;;;193.20;81.25;;;;;;;-144.73;100.00;54563.69;5024042;28;20034;-79
2023/03/21 07:01:41;;;;;;;196.23;79.90;;;;;;;-144.73;100.00;54506.22;5019122;28;20025;-78
2023/03/21 07:04:07;;;;;;;209.82;85.22;;;;;;;-144.73;100.00;54553.44;5014308;28;20041;-77
2023/03/21 07:06:33;;;;;;;195.68;83.13;;;;;;;-144.73;100.00;54530.84;5013410;28;20044;-78
2023/03/21 07:08:59;;;;;;;185.90;79.00;;;;;;;-144.73;100.00;54539.06;5004669;28;20037;-73
2023/03/21 07:11:25;;;;;;;186.85;81.68;;;;;;;-144.73;100.00;54555.47;5013676;28;20374;-73
2023/03/21 07:13:51;;;;;;;196.52;79.90;;;;;;;-144.73;100.00;54584.22;5009674;28;20029;-73
2023/03/21 07:16:17;;;;;;;176.93;77.22;;;;;;;-144.73;100.00;54539.06;5028889;28;20116;-73
2023/03/21 07:18:43;;;;;;;210.07;84.90;;;;;;;-144.73;100.00;54567.81;5011111;28;20230;-73
2023/03/21 07:21:10;;;;;;;191.55;84.38;;;;;;;-144.73;100.00;54543.16;5007999;28;20036;-73
2023/03/21 07:23:37;;;;;;;172.15;77.55;;;;;;;-144.73;100.00;54559.59;5031621;28;20047;-73
2023/03/21 07:26:03;;;;;;;202.77;85.05;;;;;;;-144.73;100.00;54539.06;5020491;28;20065;-72
2023/03/21 07:28:30;;;;;;;173.88;75.07;;;;;;;-144.73;100.00;54530.84;5018672;28;20045;-73
2023/03/21 07:30:58;;;;;;;182.20;79.55;;;;;;;-144.73;100.00;54539.06;5020187;28;20034;-73
2023/03/21 07:33:24;;;;;;;204.55;84.80;;;;;;;-144.73;100.00;54559.59;5004914;28;20051;-73
2023/03/21 07:35:51;;;;;;;189.55;81.70;;;;;;;-144.73;100.00;54553.44;5024479;28;20045;-73
2023/03/21 07:38:18;;;;;;;196.60;84.45;;;;;;;-144.73;100.00;54584.22;5003736;28;20044;-73
2023/03/21 07:40:45;;;;;;;193.70;83.07;;;;;;;-144.73;100.00;54547.28;5004265;28;20028;-73
2023/03/21 07:43:12;;;;;;;205.43;84.72;;;;;;;-144.73;100.00;54563.69;5002601;28;20568;-73
2023/03/21 07:45:37;;;;;;;174.20;80.43;;;;;;;-144.73;100.00;54567.81;5000213;28;20021;-73
2023/03/21 07:48:03;;;;;;;179.98;76.78;;;;;;;-144.73;100.00;54539.06;5003499;28;20048;-73
2023/03/21 07:50:28;;;;;;;191.07;80.72;;;;;;;-144.73;100.00;54530.84;5012624;28;20021;-73
2023/03/21 07:52:54;;;;;;;203.50;84.75;;;;;;;-144.73;100.00;54514.44;5005593;28;20490;-73
2023/03/21 07:55:19;;;;;;;174.48;75.95;;;;;;;-144.73;100.00;54514.44;5005138;28;20025;-73
2023/03/21 07:57:45;;;;;;;174.13;75.38;;;;;;;-144.73;100.00;54567.81;4998672;28;20037;-72
2023/03/21 08:00:12;;;;;;;183.40;81.97;;;;;;;-144.73;100.00;54576.00;4993801;28;20061;-72
2023/03/21 08:02:38;;;;;;;186.10;83.03;;;;;;;-144.73;100.00;54555.47;4997628;28;20041;-73
2023/03/21 08:05:03;;;;;;;210.38;88.93;;;;;;;-144.73;100.00;54551.38;5003174;28;20569;-71
2023/03/21 08:07:29;;;;;;;197.70;86.68;;;;;;;-144.73;100.00;54539.06;5000752;28;20081;-73
2023/03/21 08:09:55;;;;;;;202.88;88.55;;;;;;;-144.73;100.00;54526.75;5000434;28;20010;-71
2023/03/21 08:12:21;;;;;;;214.60;92.18;;;;;;;-144.73;100.00;54594.47;5015669;28;20034;-71
2023/03/21 08:14:46;;;;;;;255.43;97.88;;;;;;;-144.73;100.00;54571.91;5003959;28;20040;-72
2023/03/21 08:17:12;;;;;;;243.55;96.50;;;;;;;-144.73;100.00;54555.47;5021298;28;20037;-72
2023/03/21 08:19:37;;;;;;;236.18;92.85;;;;;;;-144.73;100.00;54608.84;5003564;28;20021;-72
2023/03/21 08:22:04;;;;;;;246.70;96.32;;;;;;;-144.73;100.00;54539.06;4992450;28;20055;-72
2023/03/21 08:24:29;;;;;;;265.55;101.25;;;;;;;-144.73;100.00;54608.84;5005477;28;20053;-72
2023/03/21 08:26:55;;;;;;;222.07;90.95;;;;;;;-144.73;100.00;54539.06;5012032;28;20536;-72
2023/03/21 08:29:20;;;;;;;231.18;91.93;;;;;;;-144.73;100.00;54551.38;4992664;28;20045;-72
2023/03/21 08:31:46;;;;;;;247.77;96.25;;;;;;;-144.73;100.00;54539.06;5006901;28;20105;-71
2023/03/21 08:34:12;;;;;;;209.98;86.72;;;;;;;-144.73;100.00;54522.63;5020250;28;20029;-72
2023/03/21 08:36:38;;;;;;;223.85;93.05;;;;;;;-144.73;100.00;54567.81;5007047;28;20021;-71
2023/03/21 08:39:04;;;;;;;195.48;85.88;;;;;;;-144.73;100.00;54522.63;5015355;28;20048;-72
2023/03/21 08:41:35;;;;;;;198.73;86.78;;;;;;;-144.73;100.00;54596.53;5007908;28;20037;-72
2023/03/21 08:44:02;;;;;;;198.80;83.10;;;;;;;-144.73;100.00;54506.22;5004012;28;20080;-71
2023/03/21 08:46:29;;;;;;;167.50;76.80;;;;;;;-144.73;100.00;54545.22;5014592;28;20075;-72
2023/03/21 08:48:54;;;;;;;177.68;78.43;;;;;;;-144.73;100.00;54551.38;5012695;28;20041;-72
2023/03/21 08:51:20;;;;;;;170.10;77.05;;;;;;;-144.73;100.00;54555.47;5008819;28;20022;-73
2023/03/21 08:53:46;;;;;;;182.15;82.18;;;;;;;-144.73;100.00;54559.59;5026075;28;20516;-71
2023/03/21 08:56:11;;;;;;;183.77;83.07;;;;;;;-144.73;100.00;54514.44;5013064;28;20029;-72
2023/03/21 08:58:37;;;;;;;165.52;75.55;;;;;;;-144.73;100.00;54514.44;5010259;28;20034;-71
2023/03/21 09:01:06;;;;;;;133.95;65.30;;;;;;;-144.73;100.00;54539.06;5012255;28;20030;-72
2023/03/21 09:03:31;;;;;;;153.50;70.28;;;;;;;-144.73;100.00;54547.28;5007987;28;20128;-72
2023/03/21 09:05:57;;;;;;;132.93;67.97;;;;;;;-144.73;100.00;54518.53;5010677;28;20105;-73
2023/03/21 09:08:23;;;;;;;150.70;74.40;;;;;;;-144.73;100.00;54547.28;5008772;28;20091;-73
2023/03/21 09:10:52;;;;;;;184.18;84.88;;;;;;;-144.73;100.00;54571.91;5004756;28;20026;-73
2023/03/21 09:13:18;;;;;;;170.27;79.72;;;;;;;-144.73;100.00;54518.53;5027093;28;20045;-73
2023/03/21 09:15:44;;;;;;;157.10;75.57;;;;;;;-144.73;100.00;54569.84;5021445;28;20044;-73
2023/03/21 09:18:16;;;;;;;162.43;72.97;;;;;;;-144.73;100.00;54621.16;4998089;28;20053;-72
2023/03/21 09:20:44;;;;;;;162.50;73.00;;;;;;;-144.73;100.00;54518.53;4995261;28;20029;-73
2023/03/21 09:23:11;;;;;;;138.50;68.38;;;;;;;-144.73;100.00;54559.59;5009932;28;20084;-74
2023/03/21 09:25:37;;;;;;;143.75;69.75;;;;;;;-144.73;100.00;54573.97;5009007;28;20035;-74
2023/03/21 09:28:04;;;;;;;157.85;76.80;;;;;;;-144.73;100.00;54567.81;5016987;28;20494;-74
2023/03/21 09:30:31;;;;;;;162.48;75.57;;;;;;;-144.73;100.00;54553.44;5010698;28;20049;-74
2023/03/21 09:33:02;;;;;;;149.35;67.53;;;;;;;-144.73;100.00;54547.28;5004762;28;20123;-72
2023/03/21 09:35:28;;;;;;;169.68;75.05;;;;;;;-144.73;100.00;54555.47;5009251;28;20029;-73
2023/03/21 09:37:55;;;;;;;163.18;74.82;;;;;;;-144.73;100.00;54551.38;5008265;28;20037;-73
2023/03/21 09:40:39;;;;;;;134.23;65.82;;;;;;;-144.73;100.00;54522.63;5014288;28;20115;-73
2023/03/21 09:43:33;;;;;;;148.23;70.00;;;;;;;-144.73;100.00;54576.00;5003881;28;20072;-73
2023/03/21 09:46:23;;;;;;;139.88;69.03;;;;;;;-144.73;100.00;54563.69;5009920;28;20521;-73
2023/03/21 09:48:57;;;;;;;151.90;72.80;;;;;;;-144.73;100.00;54539.06;5008759;28;20127;-73
2023/03/21 09:51:27;;;;;;;139.88;66.18;;;;;;;-144.73;100.00;54584.22;5005640;28;20017;-73
2023/03/21 09:53:55;;;;;;;134.63;64.75;;;;;;;-144.73;100.00;54571.91;5037853;28;20107;-73
2023/03/21 09:56:21;;;;;;;118.03;60.33;;;;;;;-144.73;100.00;54580.13;5010383;28;20130;-73
2023/03/21 09:58:52;;;;;;;130.32;64.32;;;;;;;-144.73;100.00;54539.06;5011392;28;20037;-72
2023/03/21 10:01:31;;;;;;;135.57;66.07;;;;;;;-144.73;100.00;54555.47;5011723;28;20025;-73
2023/03/21 10:04:03;;;;;;;129.18;62.78;;;;;;;-144.73;100.00;54551.38;5028236;28;20086;-72
2023/03/21 10:06:29;;;;;;;;;;;;;;;-144.73;100.00;54539.06;5013725;28;20041;-73
2023/03/21 10:09:00;;;;;;;135.25;62.65;;;;;;;-144.73;100.00;54617.06;5004265;28;19992;-73
2023/03/21 10:11:34;;;;;;;126.73;63.23;;;;;;;-144.73;100.00;54543.16;5011443;28;20037;-73
2023/03/21 10:14:11;;;;;;;131.93;63.38;;;;;;;-144.73;100.00;54582.16;4991726;28;20030;-73
2023/03/21 10:16:41;;;;;;;120.93;61.55;;;;;;;-144.73;100.00;54576.00;5009143;28;20049;-73
2023/03/21 10:19:11;;;;;;;143.43;63.67;;;;;;;-144.73;100.00;54567.81;5008685;28;20449;-73
2023/03/21 10:21:42;;;;;;;129.73;64.65;;;;;;;-144.73;100.00;54555.47;5027744;28;20080;-73
2023/03/21 10:24:12;;;;;;;138.05;65.97;;;;;;;-144.73;100.00;54576.00;5012224;28;20036;-73
2023/03/21 10:26:39;;;;;;;137.80;64.60;;;;;;;-144.73;100.00;54592.44;5026207;28;20021;-73
2023/03/21 10:29:04;;;;;;;132.27;63.38;;;;;;;-144.73;100.00;54518.53;5030951;28;20041;-73
2023/03/21 10:31:30;;;;;;;124.22;61.75;;;;;;;-144.73;100.00;54559.59;5012656;28;20028;-73
2023/03/21 10:34:01;;;;;;;129.10;63.08;;;;;;;-144.73;100.00;54571.91;5027544;28;20036;-72
2023/03/21 10:36:29;;;;;;;146.20;63.45;;;;;;;-144.73;100.00;54571.91;5015395;28;20017;-72
2023/03/21 10:39:00;;;;;;;122.25;65.25;;;;;;;-144.73;100.00;54520.59;5012410;28;20037;-72
2023/03/21 10:41:25;;;;;;;127.68;62.65;;;;;;;-144.73;100.00;54580.13;5047539;28;20025;-72
2023/03/21 10:44:06;;;;;;;133.02;61.90;;;;;;;-144.73;100.00;54573.97;5019918;28;20041;-72
2023/03/21 10:46:32;;;;;;;118.40;57.80;;;;;;;-144.73;100.00;54539.06;5027696;28;20027;-72
2023/03/21 10:48:57;;;;;;;130.70;60.28;;;;;;;-144.73;100.00;54580.13;5027688;28;20060;-71
2023/03/21 10:51:30;;;;;;;132.10;61.60;;;;;;;-144.73;100.00;54516.47;5009277;28;20056;-71
2023/03/21 10:54:05;;;;;;;176.60;71.63;;;;;;;-144.73;100.00;54588.31;5035423;28;20029;-71
2023/03/21 10:56:36;;;;;;;126.70;57.53;;;;;;;-144.73;100.00;54588.31;5010796;28;20025;-72
2023/03/21 10:59:04;;;;;;;132.27;63.15;;;;;;;-144.73;100.00;54588.31;5027110;28;20033;-73
2023/03/21 11:01:39;;;;;;;119.43;59.30;;;;;;;-144.73;100.00;54578.06;5008558;28;20029;-72
2023/03/21 11:04:28;;;;;;;122.78;60.35;;;;;;;-144.73;100.00;54580.13;5026345;28;20038;-72